Marfa's Hourly Summary for Tuesday, August 25, 2026
Hour Temp
(f)
RH
(%)
Solar Rad.
(MJ/m2)
Rainfall
(in)
Wind
(mph)
Battery
(volts)
8/25/2026 12:00 AM 83 18 0 0 1.58 0
8/25/2026 1:00 AM 84 18 0 0 5.23 0
8/25/2026 2:00 AM 81 22 0 0 4.33 0
8/25/2026 3:00 AM 76 26 0 0 2.32 0
8/25/2026 4:00 AM 68 33 0 0 3.16 0
8/25/2026 5:00 AM 65 36 0 0 4.49 0
8/25/2026 6:00 AM 64 37 0 0 4.18 0
8/25/2026 7:00 AM 64 39 0 0 3.13 0
8/25/2026 8:00 AM 65 39 0.08 0 3.22 0
8/25/2026 9:00 AM 71 35 0.28 0 6.19 0
8/25/2026 10:00 AM 81 28 0.48 0 0.92 0
8/25/2026 11:00 AM 86 25 0.67 0 6.91 0
8/25/2026 12:00 PM 89 19 0.82 0 6.15 0
8/25/2026 1:00 PM 92 21 0.91 0 4 0
8/25/2026 2:00 PM 94 15 0.95 0 5.86 0
8/25/2026 3:00 PM 96 15 0.91 0 8.92 0
8/25/2026 4:00 PM 97 11 0.82 0 5.56 0
8/25/2026 5:00 PM 97 8 0.68 0 6.12 0
8/25/2026 6:00 PM 97 7 0.48 0 7.85 0
8/25/2026 7:00 PM 95 11 0.28 0 6.43 0
8/25/2026 8:00 PM 92 14 0.08 0 6.37 0
8/25/2026 9:00 PM 88 18 0 0 6.62 0
8/25/2026 10:00 PM 85 24 0 0 6.52 0
8/25/2026 11:00 PM 84 27 0 0 8.17 0
Data Summary 83 22 7.44 0.00 5.18 0.00